sensor_id;sensor_type;location;lat;lon;timestamp;temperature;humidity
52471;DHT22;38382;53.160;7.026;2023-07-13T00:02:24;16.10;99.90
52471;DHT22;38382;53.160;7.026;2023-07-13T00:04:49;16.00;99.90
52471;DHT22;38382;53.160;7.026;2023-07-13T00:07:16;16.00;99.90
52471;DHT22;38382;53.160;7.026;2023-07-13T00:09:46;16.00;99.90
52471;DHT22;38382;53.160;7.026;2023-07-13T00:12:35;15.90;99.90
52471;DHT22;38382;53.160;7.026;2023-07-13T00:15:05;15.90;99.90
52471;DHT22;38382;53.160;7.026;2023-07-13T00:17:32;15.90;99.90
52471;DHT22;38382;53.160;7.026;2023-07-13T00:19:58;15.80;99.90
52471;DHT22;38382;53.160;7.026;2023-07-13T00:22:24;15.80;99.90
52471;DHT22;38382;53.160;7.026;2023-07-13T00:24:54;15.60;99.90
52471;DHT22;38382;53.160;7.026;2023-07-13T00:27:22;15.60;99.90
52471;DHT22;38382;53.160;7.026;2023-07-13T00:29:48;15.60;99.90
52471;DHT22;38382;53.160;7.026;2023-07-13T00:32:14;15.50;99.90
52471;DHT22;38382;53.160;7.026;2023-07-13T00:34:39;15.50;99.90
52471;DHT22;38382;53.160;7.026;2023-07-13T00:37:06;15.40;99.90
52471;DHT22;38382;53.160;7.026;2023-07-13T00:39:33;15.40;99.90
52471;DHT22;38382;53.160;7.026;2023-07-13T00:42:00;15.40;99.90
52471;DHT22;38382;53.160;7.026;2023-07-13T00:44:26;15.40;99.90
52471;DHT22;38382;53.160;7.026;2023-07-13T00:46:52;15.30;99.90
52471;DHT22;38382;53.160;7.026;2023-07-13T00:49:21;15.30;99.90
52471;DHT22;38382;53.160;7.026;2023-07-13T00:51:52;15.40;99.90
52471;DHT22;38382;53.160;7.026;2023-07-13T00:54:21;15.40;99.90
52471;DHT22;38382;53.160;7.026;2023-07-13T00:56:51;15.40;99.90
52471;DHT22;38382;53.160;7.026;2023-07-13T00:59:18;15.40;99.90
52471;DHT22;38382;53.160;7.026;2023-07-13T01:01:45;15.50;99.90
52471;DHT22;38382;53.160;7.026;2023-07-13T01:04:11;15.50;99.90
52471;DHT22;38382;53.160;7.026;2023-07-13T01:06:39;15.50;99.90
52471;DHT22;38382;53.160;7.026;2023-07-13T01:09:07;15.60;99.90
52471;DHT22;38382;53.160;7.026;2023-07-13T01:11:34;15.60;99.90
52471;DHT22;38382;53.160;7.026;2023-07-13T01:14:01;15.60;99.90
52471;DHT22;38382;53.160;7.026;2023-07-13T01:16:30;15.60;99.90
52471;DHT22;38382;53.160;7.026;2023-07-13T01:18:56;15.60;99.90
52471;DHT22;38382;53.160;7.026;2023-07-13T01:21:28;15.60;99.90
52471;DHT22;38382;53.160;7.026;2023-07-13T01:23:54;15.60;99.90
52471;DHT22;38382;53.160;7.026;2023-07-13T01:26:20;15.70;99.90
52471;DHT22;38382;53.160;7.026;2023-07-13T01:28:45;15.60;99.90
52471;DHT22;38382;53.160;7.026;2023-07-13T01:31:12;15.70;99.90
52471;DHT22;38382;53.160;7.026;2023-07-13T01:33:39;15.70;99.90
52471;DHT22;38382;53.160;7.026;2023-07-13T01:36:07;15.70;99.90
52471;DHT22;38382;53.160;7.026;2023-07-13T01:38:34;15.70;99.90
52471;DHT22;38382;53.160;7.026;2023-07-13T01:41:00;15.70;99.90
52471;DHT22;38382;53.160;7.026;2023-07-13T01:43:26;15.70;99.90
52471;DHT22;38382;53.160;7.026;2023-07-13T01:45:52;15.70;99.90
52471;DHT22;38382;53.160;7.026;2023-07-13T01:48:18;15.70;99.90
52471;DHT22;38382;53.160;7.026;2023-07-13T01:50:44;15.80;99.90
52471;DHT22;38382;53.160;7.026;2023-07-13T01:53:10;15.80;99.90
52471;DHT22;38382;53.160;7.026;2023-07-13T01:55:36;15.80;99.90
52471;DHT22;38382;53.160;7.026;2023-07-13T01:58:03;15.70;99.90
52471;DHT22;38382;53.160;7.026;2023-07-13T02:00:29;15.70;99.90
52471;DHT22;38382;53.160;7.026;2023-07-13T02:02:55;15.70;99.90
52471;DHT22;38382;53.160;7.026;2023-07-13T02:05:21;15.70;99.90
52471;DHT22;38382;53.160;7.026;2023-07-13T02:07:47;15.70;99.90
52471;DHT22;38382;53.160;7.026;2023-07-13T02:10:13;15.80;99.90
52471;DHT22;38382;53.160;7.026;2023-07-13T02:12:40;15.70;99.90
52471;DHT22;38382;53.160;7.026;2023-07-13T02:15:06;15.70;99.90
52471;DHT22;38382;53.160;7.026;2023-07-13T02:17:33;15.70;99.90
52471;DHT22;38382;53.160;7.026;2023-07-13T02:19:59;15.70;99.90
52471;DHT22;38382;53.160;7.026;2023-07-13T02:22:24;15.70;99.90
52471;DHT22;38382;53.160;7.026;2023-07-13T02:24:50;15.70;99.90
52471;DHT22;38382;53.160;7.026;2023-07-13T02:27:16;15.70;99.90
52471;DHT22;38382;53.160;7.026;2023-07-13T02:29:42;15.70;99.90
52471;DHT22;38382;53.160;7.026;2023-07-13T02:32:07;15.70;99.90
52471;DHT22;38382;53.160;7.026;2023-07-13T02:34:34;15.70;99.90
52471;DHT22;38382;53.160;7.026;2023-07-13T02:36:59;15.70;99.90
52471;DHT22;38382;53.160;7.026;2023-07-13T02:39:25;15.70;99.90
52471;DHT22;38382;53.160;7.026;2023-07-13T02:41:51;15.70;99.90
52471;DHT22;38382;53.160;7.026;2023-07-13T02:44:16;15.70;99.90
52471;DHT22;38382;53.160;7.026;2023-07-13T02:46:42;15.70;99.90
52471;DHT22;38382;53.160;7.026;2023-07-13T02:49:08;15.70;99.90
52471;DHT22;38382;53.160;7.026;2023-07-13T02:51:34;15.70;99.90
52471;DHT22;38382;53.160;7.026;2023-07-13T02:54:03;15.70;99.90
52471;DHT22;38382;53.160;7.026;2023-07-13T02:56:31;15.70;99.90
52471;DHT22;38382;53.160;7.026;2023-07-13T02:58:57;15.70;99.90
52471;DHT22;38382;53.160;7.026;2023-07-13T03:01:24;15.60;99.90
52471;DHT22;38382;53.160;7.026;2023-07-13T03:03:50;15.60;99.90
52471;DHT22;38382;53.160;7.026;2023-07-13T03:06:17;15.60;99.90
52471;DHT22;38382;53.160;7.026;2023-07-13T03:08:44;15.60;99.90
52471;DHT22;38382;53.160;7.026;2023-07-13T03:11:19;15.60;99.90
52471;DHT22;38382;53.160;7.026;2023-07-13T03:13:45;15.60;99.90
52471;DHT22;38382;53.160;7.026;2023-07-13T03:16:12;15.60;99.90
52471;DHT22;38382;53.160;7.026;2023-07-13T03:18:38;15.60;99.90
52471;DHT22;38382;53.160;7.026;2023-07-13T03:21:05;15.60;99.90
52471;DHT22;38382;53.160;7.026;2023-07-13T03:23:31;15.50;99.90
52471;DHT22;38382;53.160;7.026;2023-07-13T03:26:23;15.50;99.90
52471;DHT22;38382;53.160;7.026;2023-07-13T03:28:49;15.50;99.90
52471;DHT22;38382;53.160;7.026;2023-07-13T03:31:23;15.50;99.90
52471;DHT22;38382;53.160;7.026;2023-07-13T03:33:49;15.50;99.90
52471;DHT22;38382;53.160;7.026;2023-07-13T03:36:18;15.50;99.90
52471;DHT22;38382;53.160;7.026;2023-07-13T03:38:50;15.50;99.90
52471;DHT22;38382;53.160;7.026;2023-07-13T03:41:16;15.40;99.90
52471;DHT22;38382;53.160;7.026;2023-07-13T03:43:42;15.40;99.90
52471;DHT22;38382;53.160;7.026;2023-07-13T03:46:08;15.40;99.90
52471;DHT22;38382;53.160;7.026;2023-07-13T03:48:34;15.40;99.90
52471;DHT22;38382;53.160;7.026;2023-07-13T03:51:00;15.40;99.90
52471;DHT22;38382;53.160;7.026;2023-07-13T03:53:25;15.40;99.90
52471;DHT22;38382;53.160;7.026;2023-07-13T03:55:51;15.30;99.90
52471;DHT22;38382;53.160;7.026;2023-07-13T03:58:29;15.30;99.90
52471;DHT22;38382;53.160;7.026;2023-07-13T04:00:56;15.40;99.90
52471;DHT22;38382;53.160;7.026;2023-07-13T04:03:23;15.30;99.90
52471;DHT22;38382;53.160;7.026;2023-07-13T04:05:49;15.40;99.90
52471;DHT22;38382;53.160;7.026;2023-07-13T04:08:14;15.40;99.90
52471;DHT22;38382;53.160;7.026;2023-07-13T04:10:40;15.40;99.90
52471;DHT22;38382;53.160;7.026;2023-07-13T04:13:06;15.40;99.90
52471;DHT22;38382;53.160;7.026;2023-07-13T04:15:32;15.40;99.90
52471;DHT22;38382;53.160;7.026;2023-07-13T04:17:58;15.40;99.90
52471;DHT22;38382;53.160;7.026;2023-07-13T04:20:25;15.40;99.90
52471;DHT22;38382;53.160;7.026;2023-07-13T04:22:51;15.40;99.90
52471;DHT22;38382;53.160;7.026;2023-07-13T04:25:19;15.40;99.90
52471;DHT22;38382;53.160;7.026;2023-07-13T04:27:44;15.40;99.90
52471;DHT22;38382;53.160;7.026;2023-07-13T04:30:10;15.40;99.90
52471;DHT22;38382;53.160;7.026;2023-07-13T04:32:36;15.40;99.90
52471;DHT22;38382;53.160;7.026;2023-07-13T04:35:02;15.40;99.90
52471;DHT22;38382;53.160;7.026;2023-07-13T04:37:27;15.40;99.90
52471;DHT22;38382;53.160;7.026;2023-07-13T04:39:54;15.40;99.90
52471;DHT22;38382;53.160;7.026;2023-07-13T04:42:20;15.40;99.90
52471;DHT22;38382;53.160;7.026;2023-07-13T04:44:50;15.50;99.90
52471;DHT22;38382;53.160;7.026;2023-07-13T04:47:16;15.50;99.90
52471;DHT22;38382;53.160;7.026;2023-07-13T04:49:42;15.50;99.90
52471;DHT22;38382;53.160;7.026;2023-07-13T04:52:08;15.50;99.90
52471;DHT22;38382;53.160;7.026;2023-07-13T04:54:34;15.60;99.90
52471;DHT22;38382;53.160;7.026;2023-07-13T04:57:00;15.50;99.90
52471;DHT22;38382;53.160;7.026;2023-07-13T04:59:26;15.50;99.90
52471;DHT22;38382;53.160;7.026;2023-07-13T05:01:52;15.60;99.90
52471;DHT22;38382;53.160;7.026;2023-07-13T05:04:18;15.60;99.90
52471;DHT22;38382;53.160;7.026;2023-07-13T05:06:43;15.50;99.90
52471;DHT22;38382;53.160;7.026;2023-07-13T05:09:09;15.60;99.90
52471;DHT22;38382;53.160;7.026;2023-07-13T05:11:35;15.60;99.90
52471;DHT22;38382;53.160;7.026;2023-07-13T05:14:00;15.60;99.90
52471;DHT22;38382;53.160;7.026;2023-07-13T05:16:27;15.60;99.90
52471;DHT22;38382;53.160;7.026;2023-07-13T05:18:53;15.60;99.90
52471;DHT22;38382;53.160;7.026;2023-07-13T05:21:19;15.70;99.90
52471;DHT22;38382;53.160;7.026;2023-07-13T05:23:45;15.70;99.90
52471;DHT22;38382;53.160;7.026;2023-07-13T05:26:11;15.70;99.90
52471;DHT22;38382;53.160;7.026;2023-07-13T05:28:37;15.80;99.90
52471;DHT22;38382;53.160;7.026;2023-07-13T05:31:04;15.70;99.90
52471;DHT22;38382;53.160;7.026;2023-07-13T05:33:30;15.80;99.90
52471;DHT22;38382;53.160;7.026;2023-07-13T05:35:56;15.80;99.90
52471;DHT22;38382;53.160;7.026;2023-07-13T05:38:22;15.90;99.90
52471;DHT22;38382;53.160;7.026;2023-07-13T05:40:48;16.00;99.90
52471;DHT22;38382;53.160;7.026;2023-07-13T05:43:14;16.20;99.90
52471;DHT22;38382;53.160;7.026;2023-07-13T05:45:40;16.20;99.90
52471;DHT22;38382;53.160;7.026;2023-07-13T05:48:06;16.30;99.90
52471;DHT22;38382;53.160;7.026;2023-07-13T05:50:31;16.30;99.90
52471;DHT22;38382;53.160;7.026;2023-07-13T05:52:57;16.40;99.90
52471;DHT22;38382;53.160;7.026;2023-07-13T05:55:23;16.40;99.90
52471;DHT22;38382;53.160;7.026;2023-07-13T05:57:49;16.40;99.90
52471;DHT22;38382;53.160;7.026;2023-07-13T06:00:15;16.40;99.90
52471;DHT22;38382;53.160;7.026;2023-07-13T06:02:41;16.40;99.90
52471;DHT22;38382;53.160;7.026;2023-07-13T06:05:07;16.50;99.90
52471;DHT22;38382;53.160;7.026;2023-07-13T06:07:33;16.50;99.90
52471;DHT22;38382;53.160;7.026;2023-07-13T06:09:59;16.60;99.90
52471;DHT22;38382;53.160;7.026;2023-07-13T06:12:25;16.60;99.90
52471;DHT22;38382;53.160;7.026;2023-07-13T06:14:52;16.60;99.90
52471;DHT22;38382;53.160;7.026;2023-07-13T06:17:17;16.60;99.90
52471;DHT22;38382;53.160;7.026;2023-07-13T06:19:43;16.70;99.90
52471;DHT22;38382;53.160;7.026;2023-07-13T06:22:09;16.80;99.90
52471;DHT22;38382;53.160;7.026;2023-07-13T06:24:35;16.80;99.90
52471;DHT22;38382;53.160;7.026;2023-07-13T06:27:01;16.90;99.90
52471;DHT22;38382;53.160;7.026;2023-07-13T06:29:26;17.00;99.90
52471;DHT22;38382;53.160;7.026;2023-07-13T06:31:52;17.00;99.90
52471;DHT22;38382;53.160;7.026;2023-07-13T06:34:18;17.10;99.90
52471;DHT22;38382;53.160;7.026;2023-07-13T06:36:44;17.10;99.90
52471;DHT22;38382;53.160;7.026;2023-07-13T06:39:10;17.20;99.90
52471;DHT22;38382;53.160;7.026;2023-07-13T06:41:35;17.30;99.90
52471;DHT22;38382;53.160;7.026;2023-07-13T06:44:01;17.40;99.90
52471;DHT22;38382;53.160;7.026;2023-07-13T06:46:28;17.50;99.90
52471;DHT22;38382;53.160;7.026;2023-07-13T06:48:56;17.60;99.90
52471;DHT22;38382;53.160;7.026;2023-07-13T06:51:21;17.60;99.90
52471;DHT22;38382;53.160;7.026;2023-07-13T06:53:47;17.70;99.90
52471;DHT22;38382;53.160;7.026;2023-07-13T06:56:13;17.70;99.90
52471;DHT22;38382;53.160;7.026;2023-07-13T06:58:39;17.70;99.90
52471;DHT22;38382;53.160;7.026;2023-07-13T07:01:05;17.70;99.90
52471;DHT22;38382;53.160;7.026;2023-07-13T07:03:31;17.80;99.90
52471;DHT22;38382;53.160;7.026;2023-07-13T07:06:15;17.90;99.90
52471;DHT22;38382;53.160;7.026;2023-07-13T07:08:41;18.00;99.90
52471;DHT22;38382;53.160;7.026;2023-07-13T07:11:17;18.10;99.90
52471;DHT22;38382;53.160;7.026;2023-07-13T07:13:43;18.10;99.90
52471;DHT22;38382;53.160;7.026;2023-07-13T07:16:09;18.30;99.90
52471;DHT22;38382;53.160;7.026;2023-07-13T07:18:35;18.40;99.90
52471;DHT22;38382;53.160;7.026;2023-07-13T07:21:01;18.60;99.90
52471;DHT22;38382;53.160;7.026;2023-07-13T07:23:26;18.70;99.90
52471;DHT22;38382;53.160;7.026;2023-07-13T07:25:52;18.80;99.90
52471;DHT22;38382;53.160;7.026;2023-07-13T07:28:18;18.90;99.90
52471;DHT22;38382;53.160;7.026;2023-07-13T07:30:45;19.00;99.90
52471;DHT22;38382;53.160;7.026;2023-07-13T07:33:11;19.00;99.90
52471;DHT22;38382;53.160;7.026;2023-07-13T07:35:37;19.10;99.90
52471;DHT22;38382;53.160;7.026;2023-07-13T07:38:03;19.10;99.90
52471;DHT22;38382;53.160;7.026;2023-07-13T07:40:29;19.20;99.90
52471;DHT22;38382;53.160;7.026;2023-07-13T07:42:56;19.20;99.90
52471;DHT22;38382;53.160;7.026;2023-07-13T07:45:26;19.40;99.90
52471;DHT22;38382;53.160;7.026;2023-07-13T07:47:51;19.70;99.90
52471;DHT22;38382;53.160;7.026;2023-07-13T07:50:17;19.90;99.90
52471;DHT22;38382;53.160;7.026;2023-07-13T07:52:45;19.90;99.90
52471;DHT22;38382;53.160;7.026;2023-07-13T07:55:10;19.90;99.90
52471;DHT22;38382;53.160;7.026;2023-07-13T07:57:36;19.90;99.90
52471;DHT22;38382;53.160;7.026;2023-07-13T08:00:02;19.80;99.90
52471;DHT22;38382;53.160;7.026;2023-07-13T08:02:28;19.70;99.90
52471;DHT22;38382;53.160;7.026;2023-07-13T08:04:53;19.70;99.90
52471;DHT22;38382;53.160;7.026;2023-07-13T08:07:19;19.60;99.90
52471;DHT22;38382;53.160;7.026;2023-07-13T08:09:45;19.60;99.90
52471;DHT22;38382;53.160;7.026;2023-07-13T08:12:12;19.70;99.90
52471;DHT22;38382;53.160;7.026;2023-07-13T08:14:37;19.80;99.90
52471;DHT22;38382;53.160;7.026;2023-07-13T08:17:04;20.00;99.90
52471;DHT22;38382;53.160;7.026;2023-07-13T08:19:30;20.30;99.90
52471;DHT22;38382;53.160;7.026;2023-07-13T08:21:56;20.50;99.90
52471;DHT22;38382;53.160;7.026;2023-07-13T08:24:23;20.70;99.90
52471;DHT22;38382;53.160;7.026;2023-07-13T08:26:51;20.60;99.90
52471;DHT22;38382;53.160;7.026;2023-07-13T08:29:17;20.80;99.90
52471;DHT22;38382;53.160;7.026;2023-07-13T08:31:43;20.70;99.90
52471;DHT22;38382;53.160;7.026;2023-07-13T08:34:09;20.70;99.90
52471;DHT22;38382;53.160;7.026;2023-07-13T08:36:34;20.70;99.90
52471;DHT22;38382;53.160;7.026;2023-07-13T08:39:00;20.40;99.90
52471;DHT22;38382;53.160;7.026;2023-07-13T08:41:26;20.20;99.90
52471;DHT22;38382;53.160;7.026;2023-07-13T08:43:58;19.50;99.90
52471;DHT22;38382;53.160;7.026;2023-07-13T08:46:45;19.00;99.90
52471;DHT22;38382;53.160;7.026;2023-07-13T08:49:18;18.60;99.90
52471;DHT22;38382;53.160;7.026;2023-07-13T08:51:53;18.30;99.90
52471;DHT22;38382;53.160;7.026;2023-07-13T08:54:32;18.20;99.90
52471;DHT22;38382;53.160;7.026;2023-07-13T08:57:03;18.20;99.90
52471;DHT22;38382;53.160;7.026;2023-07-13T08:59:34;18.20;99.90
52471;DHT22;38382;53.160;7.026;2023-07-13T09:02:05;18.30;99.90
52471;DHT22;38382;53.160;7.026;2023-07-13T09:04:52;18.30;99.90
52471;DHT22;38382;53.160;7.026;2023-07-13T09:12:50;18.40;99.90
52471;DHT22;38382;53.160;7.026;2023-07-13T09:15:30;18.30;99.90
52471;DHT22;38382;53.160;7.026;2023-07-13T09:18:04;18.30;99.90
52471;DHT22;38382;53.160;7.026;2023-07-13T09:20:37;18.20;99.90
52471;DHT22;38382;53.160;7.026;2023-07-13T09:23:05;18.10;99.90
52471;DHT22;38382;53.160;7.026;2023-07-13T09:25:34;18.00;99.90
52471;DHT22;38382;53.160;7.026;2023-07-13T09:28:18;18.00;99.90
52471;DHT22;38382;53.160;7.026;2023-07-13T09:31:02;17.80;99.90
52471;DHT22;38382;53.160;7.026;2023-07-13T09:33:29;17.50;99.90
52471;DHT22;38382;53.160;7.026;2023-07-13T09:35:59;17.40;99.90
52471;DHT22;38382;53.160;7.026;2023-07-13T09:38:28;17.30;99.90
52471;DHT22;38382;53.160;7.026;2023-07-13T09:43:34;17.70;99.90
52471;DHT22;38382;53.160;7.026;2023-07-13T09:46:00;18.20;99.90
52471;DHT22;38382;53.160;7.026;2023-07-13T09:48:36;18.80;99.90
52471;DHT22;38382;53.160;7.026;2023-07-13T09:51:14;19.10;99.90
52471;DHT22;38382;53.160;7.026;2023-07-13T09:53:42;19.00;99.90
52471;DHT22;38382;53.160;7.026;2023-07-13T09:56:28;18.90;99.90
52471;DHT22;38382;53.160;7.026;2023-07-13T09:58:56;18.70;99.90
52471;DHT22;38382;53.160;7.026;2023-07-13T10:01:52;18.60;99.90
52471;DHT22;38382;53.160;7.026;2023-07-13T10:04:19;18.70;99.90
52471;DHT22;38382;53.160;7.026;2023-07-13T10:06:46;18.90;99.90
52471;DHT22;38382;53.160;7.026;2023-07-13T10:09:16;19.40;99.90
52471;DHT22;38382;53.160;7.026;2023-07-13T10:11:43;20.00;99.90
52471;DHT22;38382;53.160;7.026;2023-07-13T10:14:21;20.40;99.90
52471;DHT22;38382;53.160;7.026;2023-07-13T10:16:59;20.80;99.90
52471;DHT22;38382;53.160;7.026;2023-07-13T10:19:31;21.10;99.90
52471;DHT22;38382;53.160;7.026;2023-07-13T10:22:10;21.30;99.90
52471;DHT22;38382;53.160;7.026;2023-07-13T10:24:39;21.40;99.90
52471;DHT22;38382;53.160;7.026;2023-07-13T10:27:20;21.60;99.90
52471;DHT22;38382;53.160;7.026;2023-07-13T10:30:01;21.60;99.90
52471;DHT22;38382;53.160;7.026;2023-07-13T10:32:29;21.40;99.90
52471;DHT22;38382;53.160;7.026;2023-07-13T10:34:55;21.20;99.90
52471;DHT22;38382;53.160;7.026;2023-07-13T10:37:26;20.90;99.90
52471;DHT22;38382;53.160;7.026;2023-07-13T10:39:55;20.70;99.90
52471;DHT22;38382;53.160;7.026;2023-07-13T10:42:30;20.40;99.90
52471;DHT22;38382;53.160;7.026;2023-07-13T10:44:57;20.10;99.90
52471;DHT22;38382;53.160;7.026;2023-07-13T10:47:24;20.00;99.90
52471;DHT22;38382;53.160;7.026;2023-07-13T10:49:56;20.10;99.90
52471;DHT22;38382;53.160;7.026;2023-07-13T10:52:46;20.30;99.90
52471;DHT22;38382;53.160;7.026;2023-07-13T10:55:32;20.80;99.90
52471;DHT22;38382;53.160;7.026;2023-07-13T10:58:02;21.30;99.90
52471;DHT22;38382;53.160;7.026;2023-07-13T11:00:31;21.30;99.90
52471;DHT22;38382;53.160;7.026;2023-07-13T11:02:59;21.20;99.90
52471;DHT22;38382;53.160;7.026;2023-07-13T11:05:31;21.30;99.90
52471;DHT22;38382;53.160;7.026;2023-07-13T11:08:33;21.70;99.90
52471;DHT22;38382;53.160;7.026;2023-07-13T11:11:03;21.90;99.90
52471;DHT22;38382;53.160;7.026;2023-07-13T11:21:28;21.50;99.90
52471;DHT22;38382;53.160;7.026;2023-07-13T11:24:16;21.60;99.90
52471;DHT22;38382;53.160;7.026;2023-07-13T11:26:51;22.30;99.90
52471;DHT22;38382;53.160;7.026;2023-07-13T11:32:01;23.30;99.90
52471;DHT22;38382;53.160;7.026;2023-07-13T11:34:28;23.70;99.90
52471;DHT22;38382;53.160;7.026;2023-07-13T11:36:57;23.90;99.90
52471;DHT22;38382;53.160;7.026;2023-07-13T11:39:35;24.20;99.90
52471;DHT22;38382;53.160;7.026;2023-07-13T11:42:13;24.60;99.90
52471;DHT22;38382;53.160;7.026;2023-07-13T11:44:48;24.90;99.90
52471;DHT22;38382;53.160;7.026;2023-07-13T11:47:17;25.00;99.90
52471;DHT22;38382;53.160;7.026;2023-07-13T11:49:49;25.20;99.90
52471;DHT22;38382;53.160;7.026;2023-07-13T11:52:18;25.30;99.90
52471;DHT22;38382;53.160;7.026;2023-07-13T11:54:49;25.70;99.90
52471;DHT22;38382;53.160;7.026;2023-07-13T12:00:04;25.80;99.90
52471;DHT22;38382;53.160;7.026;2023-07-13T12:02:36;26.00;99.90
52471;DHT22;38382;53.160;7.026;2023-07-13T12:05:04;25.80;98.10
52471;DHT22;38382;53.160;7.026;2023-07-13T12:07:32;25.90;98.60
52471;DHT22;38382;53.160;7.026;2023-07-13T12:12:36;25.70;96.30
52471;DHT22;38382;53.160;7.026;2023-07-13T12:15:08;25.20;97.70
52471;DHT22;38382;53.160;7.026;2023-07-13T12:17:41;24.90;97.80
52471;DHT22;38382;53.160;7.026;2023-07-13T12:20:25;24.40;97.60
52471;DHT22;38382;53.160;7.026;2023-07-13T12:22:52;24.40;96.80
52471;DHT22;38382;53.160;7.026;2023-07-13T12:25:19;23.90;97.50
52471;DHT22;38382;53.160;7.026;2023-07-13T12:27:49;23.90;97.00
52471;DHT22;38382;53.160;7.026;2023-07-13T12:30:31;23.80;96.40
52471;DHT22;38382;53.160;7.026;2023-07-13T12:33:11;23.60;96.20
52471;DHT22;38382;53.160;7.026;2023-07-13T12:35:48;23.80;97.30
52471;DHT22;38382;53.160;7.026;2023-07-13T12:38:16;23.60;97.30
52471;DHT22;38382;53.160;7.026;2023-07-13T12:40:42;23.30;95.30
52471;DHT22;38382;53.160;7.026;2023-07-13T12:43:15;23.20;96.60
52471;DHT22;38382;53.160;7.026;2023-07-13T12:46:01;23.30;97.90
52471;DHT22;38382;53.160;7.026;2023-07-13T12:48:28;23.90;97.40
52471;DHT22;38382;53.160;7.026;2023-07-13T12:50:55;24.30;96.50
52471;DHT22;38382;53.160;7.026;2023-07-13T12:53:28;24.80;96.40
52471;DHT22;38382;53.160;7.026;2023-07-13T12:55:59;24.90;95.00
52471;DHT22;38382;53.160;7.026;2023-07-13T12:58:38;25.10;94.50
52471;DHT22;38382;53.160;7.026;2023-07-13T13:01:08;24.70;93.80
52471;DHT22;38382;53.160;7.026;2023-07-13T13:03:38;24.20;93.30
52471;DHT22;38382;53.160;7.026;2023-07-13T13:06:25;23.60;93.30
52471;DHT22;38382;53.160;7.026;2023-07-13T13:08:56;23.70;94.30
52471;DHT22;38382;53.160;7.026;2023-07-13T13:11:28;23.90;94.20
52471;DHT22;38382;53.160;7.026;2023-07-13T13:13:54;23.90;94.70
52471;DHT22;38382;53.160;7.026;2023-07-13T13:16:30;23.80;93.80
52471;DHT22;38382;53.160;7.026;2023-07-13T13:18:59;23.60;94.80
52471;DHT22;38382;53.160;7.026;2023-07-13T13:21:25;23.30;93.80
52471;DHT22;38382;53.160;7.026;2023-07-13T13:23:52;23.50;95.20
52471;DHT22;38382;53.160;7.026;2023-07-13T13:26:19;24.10;96.60
52471;DHT22;38382;53.160;7.026;2023-07-13T13:28:46;24.50;95.80
52471;DHT22;38382;53.160;7.026;2023-07-13T13:31:16;24.30;94.80
52471;DHT22;38382;53.160;7.026;2023-07-13T13:33:43;24.40;95.10
52471;DHT22;38382;53.160;7.026;2023-07-13T13:36:19;24.30;94.50
52471;DHT22;38382;53.160;7.026;2023-07-13T13:38:45;24.40;96.80
52471;DHT22;38382;53.160;7.026;2023-07-13T13:41:13;24.90;95.00
52471;DHT22;38382;53.160;7.026;2023-07-13T13:43:40;25.40;94.40
52471;DHT22;38382;53.160;7.026;2023-07-13T13:46:19;26.00;95.40
52471;DHT22;38382;53.160;7.026;2023-07-13T13:48:46;25.70;91.90
52471;DHT22;38382;53.160;7.026;2023-07-13T13:51:17;25.80;93.80
52471;DHT22;38382;53.160;7.026;2023-07-13T13:53:45;26.20;92.10
52471;DHT22;38382;53.160;7.026;2023-07-13T13:56:12;26.40;90.20
52471;DHT22;38382;53.160;7.026;2023-07-13T13:58:38;27.10;90.40
52471;DHT22;38382;53.160;7.026;2023-07-13T14:01:04;27.60;91.30
52471;DHT22;38382;53.160;7.026;2023-07-13T14:03:34;27.70;87.10
52471;DHT22;38382;53.160;7.026;2023-07-13T14:06:00;28.10;90.90
52471;DHT22;38382;53.160;7.026;2023-07-13T14:08:26;27.60;82.50
52471;DHT22;38382;53.160;7.026;2023-07-13T14:10:54;27.10;83.20
52471;DHT22;38382;53.160;7.026;2023-07-13T14:13:43;26.70;86.20
52471;DHT22;38382;53.160;7.026;2023-07-13T14:16:16;26.20;87.80
52471;DHT22;38382;53.160;7.026;2023-07-13T14:18:46;26.10;90.20
52471;DHT22;38382;53.160;7.026;2023-07-13T14:21:17;26.40;90.40
52471;DHT22;38382;53.160;7.026;2023-07-13T14:23:43;26.50;86.10
52471;DHT22;38382;53.160;7.026;2023-07-13T14:26:15;26.80;87.00
52471;DHT22;38382;53.160;7.026;2023-07-13T14:28:44;26.90;88.10
52471;DHT22;38382;53.160;7.026;2023-07-13T14:31:12;27.60;86.60
52471;DHT22;38382;53.160;7.026;2023-07-13T14:33:41;27.20;85.90
52471;DHT22;38382;53.160;7.026;2023-07-13T14:36:33;27.10;86.80
52471;DHT22;38382;53.160;7.026;2023-07-13T14:39:01;27.30;84.60
52471;DHT22;38382;53.160;7.026;2023-07-13T14:41:31;27.40;85.20
52471;DHT22;38382;53.160;7.026;2023-07-13T14:43:58;27.70;84.80
52471;DHT22;38382;53.160;7.026;2023-07-13T14:46:31;28.20;83.80
52471;DHT22;38382;53.160;7.026;2023-07-13T14:49:09;28.60;83.10
52471;DHT22;38382;53.160;7.026;2023-07-13T14:51:35;28.90;80.10
52471;DHT22;38382;53.160;7.026;2023-07-13T14:54:05;28.40;80.10
52471;DHT22;38382;53.160;7.026;2023-07-13T14:56:32;28.30;80.00
52471;DHT22;38382;53.160;7.026;2023-07-13T14:59:00;27.80;80.40
52471;DHT22;38382;53.160;7.026;2023-07-13T15:01:26;27.40;81.90
52471;DHT22;38382;53.160;7.026;2023-07-13T15:03:52;27.00;83.00
52471;DHT22;38382;53.160;7.026;2023-07-13T15:06:19;26.60;83.50
52471;DHT22;38382;53.160;7.026;2023-07-13T15:08:46;25.90;83.80
52471;DHT22;38382;53.160;7.026;2023-07-13T15:11:12;26.20;83.90
52471;DHT22;38382;53.160;7.026;2023-07-13T15:13:41;26.10;83.40
52471;DHT22;38382;53.160;7.026;2023-07-13T15:16:25;25.90;85.10
52471;DHT22;38382;53.160;7.026;2023-07-13T15:18:51;26.10;86.50
52471;DHT22;38382;53.160;7.026;2023-07-13T15:21:21;27.00;84.40
52471;DHT22;38382;53.160;7.026;2023-07-13T15:23:48;27.60;80.90
52471;DHT22;38382;53.160;7.026;2023-07-13T15:26:16;27.90;82.30
52471;DHT22;38382;53.160;7.026;2023-07-13T15:28:47;28.00;79.30
52471;DHT22;38382;53.160;7.026;2023-07-13T15:38:46;27.50;79.60
52471;DHT22;38382;53.160;7.026;2023-07-13T15:41:22;27.40;80.70
52471;DHT22;38382;53.160;7.026;2023-07-13T15:43:50;27.00;82.30
52471;DHT22;38382;53.160;7.026;2023-07-13T15:46:18;26.50;82.20
52471;DHT22;38382;53.160;7.026;2023-07-13T15:48:48;26.50;83.10
52471;DHT22;38382;53.160;7.026;2023-07-13T15:51:25;26.70;81.70
52471;DHT22;38382;53.160;7.026;2023-07-13T15:53:58;26.60;82.60
52471;DHT22;38382;53.160;7.026;2023-07-13T15:56:28;26.00;81.30
52471;DHT22;38382;53.160;7.026;2023-07-13T15:58:56;26.10;82.60
52471;DHT22;38382;53.160;7.026;2023-07-13T16:01:23;26.60;82.30
52471;DHT22;38382;53.160;7.026;2023-07-13T16:03:50;27.90;81.30
52471;DHT22;38382;53.160;7.026;2023-07-13T16:06:22;27.90;80.70
52471;DHT22;38382;53.160;7.026;2023-07-13T16:08:49;27.90;81.10
52471;DHT22;38382;53.160;7.026;2023-07-13T16:11:25;28.00;79.30
52471;DHT22;38382;53.160;7.026;2023-07-13T16:13:52;28.50;79.00